createdAt,value
2023-01-17T00:02:13.376Z,0.82
2023-01-17T00:04:59.468Z,1.85
2023-01-17T00:07:45.397Z,6.72
2023-01-17T00:10:23.823Z,3.92
2023-01-17T00:12:53.655Z,3.75
2023-01-17T00:15:23.416Z,2.38
2023-01-17T00:17:51.073Z,4.82
2023-01-17T00:20:39.842Z,4.95
2023-01-17T00:23:27.229Z,4.95
2023-01-17T00:26:03.256Z,8.05
2023-01-17T00:28:36.031Z,8.15
2023-01-17T00:31:04.581Z,3.55
2023-01-17T00:33:31.902Z,6.10
2023-01-17T00:35:59.861Z,6.38
2023-01-17T00:38:29.479Z,2.95
2023-01-17T00:41:06.040Z,1.13
2023-01-17T00:43:51.946Z,3.22
2023-01-17T00:46:38.209Z,5.15
2023-01-17T00:49:24.755Z,2.65
2023-01-17T00:52:10.602Z,2.35
2023-01-17T00:54:55.892Z,4.28
2023-01-17T00:57:41.803Z,0.60
2023-01-17T01:00:27.921Z,1.08
2023-01-17T01:03:13.364Z,1.17
2023-01-17T01:05:58.909Z,0.63
2023-01-17T01:08:47.448Z,1.05
2023-01-17T01:11:39.755Z,2.45
2023-01-17T01:14:28.716Z,2.75
2023-01-17T01:17:14.069Z,2.38
2023-01-17T01:19:59.595Z,6.28
2023-01-17T01:22:45.053Z,5.22
2023-01-17T01:25:30.551Z,7.38
2023-01-17T01:28:30.631Z,3.95
2023-01-17T01:31:19.121Z,5.55
2023-01-17T01:33:46.141Z,6.00
2023-01-17T01:36:13.146Z,6.95
2023-01-17T01:38:40.260Z,8.10
2023-01-17T01:41:07.421Z,7.63
2023-01-17T01:43:53.416Z,1.23
2023-01-17T01:46:42.133Z,1.45
2023-01-17T01:49:17.261Z,1.85
2023-01-17T01:51:49.544Z,3.10
2023-01-17T01:57:09.010Z,2.65
2023-01-17T01:59:41.414Z,3.38
2023-01-17T02:02:09.017Z,4.15
2023-01-17T02:04:36.540Z,4.85
2023-01-17T02:07:20.363Z,1.25
2023-01-17T02:09:47.372Z,2.45
2023-01-17T02:12:14.618Z,0.93
2023-01-17T02:14:42.206Z,1.45
2023-01-17T02:17:34.071Z,2.30
2023-01-17T02:20:34.791Z,0.95
2023-01-17T02:23:24.480Z,3.80
2023-01-17T02:26:06.840Z,0.22
2023-01-17T02:31:31.160Z,0.30
2023-01-17T02:34:02.353Z,4.47
2023-01-17T02:36:31.811Z,3.72
2023-01-17T02:39:22.216Z,1.67
2023-01-17T02:41:58.212Z,4.95
2023-01-17T02:44:25.119Z,2.53
2023-01-17T02:46:57.335Z,2.03
2023-01-17T02:54:48.891Z,6.53
2023-01-17T02:57:39.724Z,2.15
2023-01-17T03:00:22.695Z,2.28
2023-01-17T03:03:23.885Z,4.57
2023-01-17T03:05:56.780Z,2.55
2023-01-17T03:08:24.321Z,8.98
2023-01-17T03:10:51.528Z,12.48
2023-01-17T03:13:18.638Z,5.07
2023-01-17T03:15:45.717Z,6.70
2023-01-17T03:18:15.680Z,5.53
2023-01-17T03:20:42.575Z,15.45
2023-01-17T03:23:09.530Z,4.60
2023-01-17T03:25:36.493Z,4.18
2023-01-17T03:28:03.832Z,3.08
2023-01-17T03:30:30.941Z,5.25
2023-01-17T03:32:57.956Z,2.17
2023-01-17T03:35:24.909Z,8.57
2023-01-17T03:37:51.824Z,3.42
2023-01-17T03:40:18.830Z,9.27
2023-01-17T03:42:45.889Z,11.40
2023-01-17T03:45:13.071Z,5.70
2023-01-17T03:47:39.983Z,8.13
2023-01-17T03:50:07.279Z,3.10
2023-01-17T03:52:34.289Z,8.23
2023-01-17T03:55:02.644Z,9.25
2023-01-17T03:57:29.735Z,4.35
2023-01-17T03:59:56.713Z,11.63
2023-01-17T04:02:24.602Z,10.25
2023-01-17T04:04:51.619Z,3.55
2023-01-17T04:07:18.633Z,2.85
2023-01-17T04:09:45.514Z,9.45
2023-01-17T04:12:12.538Z,9.93
2023-01-17T04:14:40.932Z,5.88
2023-01-17T04:17:14.567Z,6.68
2023-01-17T04:19:41.539Z,3.22
2023-01-17T04:22:08.655Z,4.28
2023-01-17T04:24:35.819Z,2.22
2023-01-17T04:27:04.346Z,6.45
2023-01-17T04:29:31.495Z,4.03
2023-01-17T04:31:58.406Z,5.25
2023-01-17T04:34:25.393Z,5.97
2023-01-17T04:36:52.314Z,6.60
2023-01-17T04:39:19.312Z,17.80
2023-01-17T04:41:46.200Z,6.68
2023-01-17T04:44:13.119Z,6.00
2023-01-17T04:46:40.240Z,7.43
2023-01-17T04:49:07.190Z,2.90
2023-01-17T04:51:34.138Z,6.35
2023-01-17T04:54:01.044Z,3.10
2023-01-17T04:56:27.997Z,6.82
2023-01-17T04:58:58.150Z,6.15
2023-01-17T05:01:25.791Z,8.27
2023-01-17T05:03:52.781Z,11.90
2023-01-17T05:06:19.688Z,5.05
2023-01-17T05:08:46.570Z,9.45
2023-01-17T05:11:13.469Z,5.47
2023-01-17T05:13:40.342Z,10.07
2023-01-17T05:16:07.503Z,3.78
2023-01-17T05:18:34.560Z,4.30
2023-01-17T05:21:03.181Z,3.38
2023-01-17T05:23:30.191Z,7.68
2023-01-17T05:25:57.189Z,3.95
2023-01-17T05:28:24.065Z,8.25
2023-01-17T05:30:51.038Z,8.10
2023-01-17T05:33:17.954Z,4.38
2023-01-17T05:35:44.892Z,4.13
2023-01-17T05:38:11.811Z,11.55
2023-01-17T05:40:38.759Z,2.80
2023-01-17T05:43:05.687Z,5.53
2023-01-17T05:45:33.897Z,2.40
2023-01-17T05:48:01.435Z,3.38
2023-01-17T05:50:35.231Z,5.68
2023-01-17T05:53:07.741Z,13.15
2023-01-17T05:55:35.803Z,9.05
2023-01-17T05:58:03.431Z,9.98
2023-01-17T06:00:31.826Z,3.75
2023-01-17T06:03:00.500Z,4.72
2023-01-17T06:05:28.899Z,6.00
2023-01-17T06:07:56.599Z,7.68
2023-01-17T06:10:24.449Z,10.32
2023-01-17T06:12:59.920Z,6.63
2023-01-17T06:15:26.909Z,23.13
2023-01-17T06:17:53.895Z,6.80
2023-01-17T06:20:20.780Z,5.35
2023-01-17T06:22:47.677Z,11.10
2023-01-17T06:25:14.675Z,5.43
2023-01-17T06:27:41.586Z,9.60
2023-01-17T06:30:09.258Z,3.85
2023-01-17T06:32:36.082Z,7.25
2023-01-17T06:35:02.987Z,13.45
2023-01-17T06:37:29.858Z,10.23
2023-01-17T06:39:56.760Z,9.07
2023-01-17T06:42:23.813Z,3.90
2023-01-17T06:44:50.710Z,8.10
2023-01-17T06:47:17.578Z,4.20
2023-01-17T06:49:44.446Z,5.32
2023-01-17T06:52:11.422Z,13.23
2023-01-17T06:54:38.362Z,6.20
2023-01-17T06:57:05.284Z,10.30
2023-01-17T06:59:32.201Z,7.75
2023-01-17T07:01:59.160Z,15.00
2023-01-17T07:04:26.038Z,11.23
2023-01-17T07:06:52.961Z,6.47
2023-01-17T07:09:19.898Z,13.10
2023-01-17T07:11:46.822Z,11.60
2023-01-17T07:14:14.571Z,13.88
2023-01-17T07:16:45.318Z,11.00
2023-01-17T07:19:12.630Z,8.90
2023-01-17T07:21:40.277Z,8.88
2023-01-17T07:24:07.921Z,13.60
2023-01-17T07:26:37.688Z,17.85
2023-01-17T07:29:05.319Z,8.70
2023-01-17T07:31:36.876Z,9.65
2023-01-17T07:34:04.067Z,12.95
2023-01-17T07:36:30.974Z,14.15
2023-01-17T07:38:57.947Z,10.60
2023-01-17T07:41:25.082Z,9.60
2023-01-17T07:43:52.035Z,13.05
2023-01-17T07:46:19.435Z,8.80
2023-01-17T07:48:46.409Z,16.98
2023-01-17T07:51:13.370Z,13.07
2023-01-17T07:53:40.227Z,16.10
2023-01-17T07:56:07.780Z,12.82
2023-01-17T07:58:35.805Z,14.13
2023-01-17T08:01:08.796Z,9.48
2023-01-17T08:03:40.026Z,13.27
2023-01-17T08:06:23.170Z,14.87
2023-01-17T08:08:50.801Z,16.90
2023-01-17T08:11:17.801Z,15.95
2023-01-17T08:13:44.723Z,11.15
2023-01-17T08:16:12.973Z,14.88
2023-01-17T08:18:40.614Z,7.40
2023-01-17T08:21:15.375Z,4.47
2023-01-17T08:23:42.785Z,8.40
2023-01-17T08:26:09.699Z,19.02
2023-01-17T08:28:36.595Z,7.88
2023-01-17T08:31:08.493Z,24.50
2023-01-17T08:33:35.843Z,8.90
2023-01-17T08:36:02.894Z,14.95
2023-01-17T08:38:29.850Z,7.35
2023-01-17T08:41:00.702Z,13.75
2023-01-17T08:43:27.548Z,22.25
2023-01-17T08:45:56.117Z,18.95
2023-01-17T08:48:24.112Z,21.77
2023-01-17T08:50:51.267Z,16.77
2023-01-17T08:53:21.525Z,10.30
2023-01-17T08:55:48.623Z,14.50
2023-01-17T08:58:15.492Z,8.75
2023-01-17T09:00:42.383Z,6.50
2023-01-17T09:03:14.208Z,10.80
2023-01-17T09:05:41.546Z,5.13
2023-01-17T09:08:08.593Z,10.10
2023-01-17T09:10:35.572Z,9.80
2023-01-17T09:13:02.464Z,9.27
2023-01-17T09:15:29.367Z,7.10
2023-01-17T09:17:57.233Z,6.20
2023-01-17T09:20:24.954Z,8.20
2023-01-17T09:22:52.215Z,7.32
2023-01-17T09:25:19.138Z,8.20
2023-01-17T09:27:47.241Z,9.23
2023-01-17T09:30:14.617Z,11.38
2023-01-17T09:32:41.651Z,12.63
2023-01-17T09:35:08.961Z,9.48
2023-01-17T09:37:35.887Z,9.77
2023-01-17T09:40:03.553Z,10.73
2023-01-17T09:42:39.261Z,6.63
2023-01-17T09:45:16.546Z,11.27
2023-01-17T09:47:53.884Z,9.02
2023-01-17T09:50:32.078Z,10.40
2023-01-17T09:53:01.299Z,8.65
2023-01-17T09:55:37.209Z,12.00
2023-01-17T09:58:10.655Z,7.95
2023-01-17T10:01:05.932Z,6.72
2023-01-17T10:03:54.257Z,7.97
2023-01-17T10:06:39.464Z,12.75
2023-01-17T10:09:25.375Z,15.77
2023-01-17T10:12:22.639Z,8.38
2023-01-17T10:15:27.244Z,26.38
2023-01-17T10:18:34.058Z,10.35
2023-01-17T10:21:26.869Z,12.00
2023-01-17T10:24:16.602Z,9.23
2023-01-17T10:26:50.282Z,11.00
2023-01-17T10:29:20.928Z,9.57
2023-01-17T10:31:58.009Z,11.80
2023-01-17T10:34:40.888Z,14.13
2023-01-17T10:37:20.811Z,17.17
2023-01-17T10:39:49.911Z,9.02
2023-01-17T10:42:49.712Z,9.60
2023-01-17T10:45:28.818Z,12.38
2023-01-17T10:48:14.867Z,11.90
2023-01-17T10:51:05.755Z,22.08
2023-01-17T10:53:53.421Z,13.00
2023-01-17T10:56:26.266Z,15.88
2023-01-17T10:59:14.382Z,14.27
2023-01-17T11:01:41.744Z,16.42
2023-01-17T11:04:23.794Z,14.15
2023-01-17T11:07:12.250Z,19.45
2023-01-17T11:09:44.532Z,13.80
2023-01-17T11:14:58.730Z,17.67
2023-01-17T11:17:27.693Z,10.82
2023-01-17T11:20:06.154Z,11.43
2023-01-17T11:22:33.211Z,9.25
2023-01-17T11:25:00.980Z,13.68
2023-01-17T11:27:30.640Z,13.48
2023-01-17T11:30:19.415Z,10.95
2023-01-17T11:32:57.692Z,13.13
2023-01-17T11:35:37.180Z,15.70
2023-01-17T11:38:14.164Z,14.68
2023-01-17T11:40:45.352Z,9.23
2023-01-17T11:43:12.754Z,21.17
2023-01-17T11:45:40.656Z,13.35
2023-01-17T11:48:13.349Z,12.23
2023-01-17T11:50:47.528Z,10.02
2023-01-17T11:53:34.219Z,8.10
2023-01-17T11:56:18.204Z,17.67
2023-01-17T11:58:45.916Z,32.95
2023-01-17T12:01:18.741Z,9.82
2023-01-17T12:03:59.363Z,11.02
2023-01-17T12:06:57.750Z,12.95
2023-01-17T12:09:46.850Z,11.32
2023-01-17T12:12:41.828Z,6.95
2023-01-17T12:15:42.987Z,12.60
2023-01-17T12:18:31.392Z,7.63
2023-01-17T12:21:03.984Z,7.65
2023-01-17T12:23:37.077Z,5.07
2023-01-17T12:26:23.911Z,8.95
2023-01-17T12:29:06.535Z,3.25
2023-01-17T12:31:52.702Z,6.13
2023-01-17T12:34:40.312Z,4.45
2023-01-17T12:37:16.750Z,6.07
2023-01-17T12:39:53.842Z,7.22
2023-01-17T12:42:32.967Z,6.03
2023-01-17T12:45:09.886Z,4.45
2023-01-17T12:47:45.214Z,10.02
2023-01-17T12:50:29.295Z,12.10
2023-01-17T12:53:06.442Z,3.13
2023-01-17T12:55:42.903Z,3.45
2023-01-17T12:58:18.830Z,2.45
2023-01-17T13:00:51.381Z,4.15
2023-01-17T13:03:47.511Z,3.15
2023-01-17T13:06:56.273Z,2.22
2023-01-17T13:09:24.119Z,2.65
2023-01-17T13:12:13.551Z,2.70
2023-01-17T13:14:40.859Z,6.57
2023-01-17T13:17:45.057Z,8.45
2023-01-17T13:20:36.632Z,2.67
2023-01-17T13:23:48.334Z,1.40
2023-01-17T13:26:28.287Z,1.50
2023-01-17T13:29:41.061Z,4.85
2023-01-17T13:32:49.660Z,5.65
2023-01-17T13:35:47.703Z,2.40
2023-01-17T13:38:42.615Z,1.48
2023-01-17T13:41:15.576Z,5.85
2023-01-17T13:44:07.176Z,3.03
2023-01-17T13:46:57.375Z,2.25
2023-01-17T13:49:31.599Z,4.72
2023-01-17T13:52:03.898Z,9.18
2023-01-17T13:57:30.344Z,3.10
2023-01-17T13:59:59.367Z,2.17
2023-01-17T14:02:32.563Z,5.25
2023-01-17T14:05:10.559Z,3.40
2023-01-17T14:07:42.969Z,3.55
2023-01-17T14:10:32.568Z,6.38
2023-01-17T14:13:00.626Z,1.77
2023-01-17T14:15:29.846Z,2.58
2023-01-17T14:18:03.056Z,2.10
2023-01-17T14:20:36.213Z,2.78
2023-01-17T14:23:20.908Z,3.50
2023-01-17T14:25:48.934Z,16.90
2023-01-17T14:28:29.376Z,2.05
2023-01-17T14:30:57.984Z,3.72
2023-01-17T14:33:42.592Z,1.60
2023-01-17T14:36:32.372Z,4.45
2023-01-17T14:38:59.270Z,5.03
2023-01-17T14:41:29.166Z,3.63
2023-01-17T14:43:59.571Z,2.08
2023-01-17T14:46:32.982Z,4.13
2023-01-17T14:49:06.189Z,2.45
2023-01-17T14:51:35.455Z,4.35
2023-01-17T14:54:05.714Z,3.20
2023-01-17T14:56:33.387Z,2.03
2023-01-17T14:59:20.142Z,6.90
2023-01-17T15:02:07.998Z,19.80
2023-01-17T15:04:39.681Z,20.92
2023-01-17T15:07:07.789Z,18.67
2023-01-17T15:09:38.514Z,17.13
2023-01-17T15:12:10.179Z,8.10
2023-01-17T15:14:40.084Z,11.07
2023-01-17T15:17:24.550Z,7.13
2023-01-17T15:19:56.831Z,11.25
2023-01-17T15:24:54.334Z,6.38
2023-01-17T15:27:21.789Z,4.60
2023-01-17T15:29:49.306Z,5.80
2023-01-17T15:32:28.008Z,3.85
2023-01-17T15:34:55.056Z,3.30
2023-01-17T15:37:32.735Z,3.35
2023-01-17T15:40:11.529Z,10.43
2023-01-17T15:42:43.173Z,10.55
2023-01-17T15:45:19.905Z,4.00
2023-01-17T15:47:50.653Z,4.05
2023-01-17T15:50:21.212Z,5.57
2023-01-17T15:52:53.466Z,6.13
2023-01-17T15:57:57.639Z,1.92
2023-01-17T16:00:33.086Z,2.65
2023-01-17T16:03:01.017Z,4.55
2023-01-17T16:05:32.927Z,6.15
2023-01-17T16:08:03.236Z,5.50
2023-01-17T16:10:32.192Z,8.60
2023-01-17T16:12:59.728Z,6.85
2023-01-17T16:15:27.963Z,4.80
2023-01-17T16:18:19.033Z,4.47
2023-01-17T16:20:58.928Z,6.07
2023-01-17T16:23:26.721Z,3.47
2023-01-17T16:25:54.022Z,8.95
2023-01-17T16:28:21.251Z,9.82
2023-01-17T16:30:48.900Z,6.20
2023-01-17T16:33:16.238Z,23.88
2023-01-17T16:35:43.261Z,14.73
2023-01-17T16:38:15.947Z,14.30
2023-01-17T16:40:47.018Z,11.82
2023-01-17T16:43:15.934Z,17.80
2023-01-17T16:45:52.760Z,27.10
2023-01-17T16:48:20.891Z,10.40
2023-01-17T16:50:50.759Z,14.05
2023-01-17T16:53:24.292Z,9.25
2023-01-17T16:55:55.704Z,8.55
2023-01-17T16:58:23.071Z,9.20
2023-01-17T17:00:50.191Z,13.70
2023-01-17T17:03:18.965Z,12.65
2023-01-17T17:05:54.192Z,8.98
2023-01-17T17:08:21.113Z,12.20
2023-01-17T17:10:48.147Z,10.82
2023-01-17T17:13:15.147Z,10.52
2023-01-17T17:15:45.462Z,12.55
2023-01-17T17:18:17.757Z,17.63
2023-01-17T17:20:45.661Z,18.98
2023-01-17T17:23:13.010Z,19.27
2023-01-17T17:25:40.076Z,22.15
2023-01-17T17:28:07.197Z,19.25
2023-01-17T17:30:36.061Z,18.42
2023-01-17T17:33:04.610Z,20.17
2023-01-17T17:35:34.933Z,23.08
2023-01-17T17:38:02.024Z,22.42
2023-01-17T17:40:28.990Z,24.83
2023-01-17T17:42:55.825Z,19.02
2023-01-17T17:45:22.726Z,22.92
2023-01-17T17:47:49.670Z,15.63
2023-01-17T17:50:16.729Z,10.13
2023-01-17T17:52:44.160Z,16.65
2023-01-17T17:55:11.313Z,10.52
2023-01-17T17:57:38.197Z,12.52
2023-01-17T18:00:06.193Z,13.38
2023-01-17T18:02:33.540Z,9.48
2023-01-17T18:05:01.266Z,8.55
2023-01-17T18:07:32.708Z,9.80
2023-01-17T18:09:59.712Z,14.18
2023-01-17T18:12:26.880Z,10.15
2023-01-17T18:14:54.782Z,7.38
2023-01-17T18:17:21.708Z,8.75
2023-01-17T18:19:48.640Z,10.18
2023-01-17T18:22:15.524Z,7.78
2023-01-17T18:24:42.507Z,11.82
2023-01-17T18:27:10.487Z,7.57
2023-01-17T18:29:37.582Z,18.95
2023-01-17T18:32:04.748Z,12.82
2023-01-17T18:34:33.721Z,8.50
2023-01-17T18:37:00.986Z,11.65
2023-01-17T18:39:29.767Z,22.15
2023-01-17T18:41:56.927Z,11.82
2023-01-17T18:44:24.058Z,20.23
2023-01-17T18:46:53.025Z,12.93
2023-01-17T18:49:20.088Z,14.80
2023-01-17T18:51:50.747Z,9.45
2023-01-17T18:54:19.547Z,11.65
2023-01-17T18:56:46.985Z,9.45
2023-01-17T18:59:16.036Z,12.27
2023-01-17T19:01:43.738Z,8.68
2023-01-17T19:04:12.293Z,7.50
2023-01-17T19:06:42.260Z,11.27
2023-01-17T19:09:10.811Z,12.35
2023-01-17T19:11:38.109Z,11.50
2023-01-17T19:14:05.859Z,6.38
2023-01-17T19:16:35.961Z,11.10
2023-01-17T19:19:06.951Z,6.88
2023-01-17T19:21:34.480Z,11.10
2023-01-17T19:24:01.559Z,8.15
2023-01-17T19:26:29.964Z,9.07
2023-01-17T19:29:03.677Z,9.90
2023-01-17T19:31:34.437Z,8.60
2023-01-17T19:34:01.381Z,9.07
2023-01-17T19:36:32.064Z,12.48
2023-01-17T19:39:04.988Z,9.63
2023-01-17T19:41:34.767Z,13.70
2023-01-17T19:44:04.789Z,25.45
2023-01-17T19:46:32.529Z,10.90
2023-01-17T19:48:59.759Z,12.25
2023-01-17T19:51:27.180Z,12.20
2023-01-17T19:53:54.581Z,17.92
2023-01-17T19:56:24.381Z,55.15
2023-01-17T19:58:52.279Z,41.03
2023-01-17T20:01:24.669Z,11.07
2023-01-17T20:03:52.144Z,11.38
2023-01-17T20:06:21.217Z,11.27
2023-01-17T20:08:48.142Z,10.13
2023-01-17T20:11:18.614Z,11.10
2023-01-17T20:13:53.249Z,9.88
2023-01-17T20:16:20.643Z,9.40
2023-01-17T20:18:47.631Z,18.08
2023-01-17T20:21:20.022Z,12.43
2023-01-17T20:23:47.943Z,14.68
2023-01-17T20:26:18.708Z,18.17
2023-01-17T20:28:47.525Z,17.98
2023-01-17T20:31:16.966Z,16.70
2023-01-17T20:33:45.426Z,13.20
2023-01-17T20:36:15.027Z,11.70
2023-01-17T20:38:45.703Z,15.50
2023-01-17T20:41:18.392Z,16.85
2023-01-17T20:43:47.846Z,13.23
2023-01-17T20:46:15.671Z,11.38
2023-01-17T20:48:54.267Z,8.05
2023-01-17T20:51:22.936Z,9.90
2023-01-17T20:54:12.961Z,11.10
2023-01-17T20:56:40.397Z,17.33
2023-01-17T20:59:10.908Z,32.85
2023-01-17T21:01:38.447Z,28.05
2023-01-17T21:04:10.036Z,48.72
2023-01-17T21:06:38.879Z,77.15
2023-01-17T21:09:08.640Z,125.72
2023-01-17T21:11:36.956Z,23.23
2023-01-17T21:14:08.113Z,18.25
2023-01-17T21:16:35.656Z,19.45
2023-01-17T21:19:02.978Z,14.23
2023-01-17T21:21:30.466Z,16.60
2023-01-17T21:23:59.321Z,12.52
2023-01-17T21:26:28.352Z,13.45
2023-01-17T21:28:55.484Z,11.15
2023-01-17T21:31:28.808Z,11.98
2023-01-17T21:34:03.837Z,13.93
2023-01-17T21:36:36.293Z,12.98
2023-01-17T21:39:10.481Z,17.35
2023-01-17T21:41:39.614Z,18.38
2023-01-17T21:44:11.556Z,12.52
2023-01-17T21:46:39.884Z,11.65
2023-01-17T21:49:10.669Z,9.52
2023-01-17T21:51:54.303Z,13.57
2023-01-17T21:54:47.787Z,14.75
2023-01-17T21:57:39.215Z,16.52
2023-01-17T22:00:09.131Z,15.90
2023-01-17T22:02:40.101Z,13.00
2023-01-17T22:05:08.393Z,14.75
2023-01-17T22:07:35.599Z,10.85
2023-01-17T22:10:02.517Z,22.92
2023-01-17T22:12:29.422Z,10.73
2023-01-17T22:14:56.285Z,18.75
2023-01-17T22:17:23.515Z,11.43
2023-01-17T22:19:50.642Z,10.07
2023-01-17T22:22:17.525Z,17.70
2023-01-17T22:24:44.397Z,14.35
2023-01-17T22:27:13.495Z,10.30
2023-01-17T22:29:40.515Z,14.10
2023-01-17T22:32:08.179Z,11.23
2023-01-17T22:34:35.489Z,17.33
2023-01-17T22:37:04.024Z,13.85
2023-01-17T22:39:31.061Z,19.90
2023-01-17T22:41:58.040Z,12.60
2023-01-17T22:44:24.970Z,12.30
2023-01-17T22:46:51.883Z,11.23
2023-01-17T22:49:23.310Z,13.80
2023-01-17T22:51:51.191Z,12.90
2023-01-17T22:54:19.324Z,12.07
2023-01-17T22:56:46.291Z,8.43
2023-01-17T22:59:13.322Z,17.00
2023-01-17T23:01:43.001Z,9.18
2023-01-17T23:04:13.178Z,10.55
2023-01-17T23:06:41.967Z,13.68
2023-01-17T23:09:11.863Z,14.48
2023-01-17T23:11:49.867Z,10.25
2023-01-17T23:14:18.407Z,13.43
2023-01-17T23:17:08.802Z,11.13
2023-01-17T23:19:38.312Z,14.43
2023-01-17T23:22:17.561Z,11.63
2023-01-17T23:24:52.405Z,16.30
2023-01-17T23:27:49.592Z,12.77
2023-01-17T23:30:25.624Z,12.52
2023-01-17T23:32:55.133Z,11.25
2023-01-17T23:35:27.817Z,15.60
2023-01-17T23:38:14.047Z,21.25
2023-01-17T23:40:42.400Z,10.55
2023-01-17T23:43:25.839Z,17.15
2023-01-17T23:45:54.339Z,19.00
2023-01-17T23:48:24.672Z,17.05
2023-01-17T23:50:52.189Z,13.85
2023-01-17T23:53:23.750Z,16.55
2023-01-17T23:55:53.954Z,12.68
2023-01-17T23:58:23.635Z,19.23
